createdAt,value
2022-12-01T00:00:44.653Z,7.62
2022-12-01T00:01:44.744Z,7.63
2022-12-01T00:02:44.737Z,7.63
2022-12-01T00:03:44.546Z,7.62
2022-12-01T00:04:44.531Z,7.62
2022-12-01T00:05:44.514Z,7.62
2022-12-01T00:06:44.495Z,7.60
2022-12-01T00:07:44.554Z,7.60
2022-12-01T00:08:44.474Z,7.60
2022-12-01T00:09:44.479Z,7.57
2022-12-01T00:10:44.473Z,7.57
2022-12-01T00:11:44.463Z,7.54
2022-12-01T00:12:44.446Z,7.54
2022-12-01T00:13:44.409Z,7.54
2022-12-01T00:14:44.418Z,7.52
2022-12-01T00:15:44.412Z,7.52
2022-12-01T00:16:44.587Z,7.52
2022-12-01T00:17:44.407Z,7.51
2022-12-01T00:18:44.376Z,7.51
2022-12-01T00:19:44.351Z,7.51
2022-12-01T00:20:44.384Z,7.51
2022-12-01T00:21:44.436Z,7.50
2022-12-01T00:22:44.332Z,7.50
2022-12-01T00:23:44.300Z,7.51
2022-12-01T00:24:44.324Z,7.50
2022-12-01T00:25:44.294Z,7.51
2022-12-01T00:26:44.306Z,7.52
2022-12-01T00:27:44.277Z,7.51
2022-12-01T00:28:44.270Z,7.52
2022-12-01T00:29:44.248Z,7.54
2022-12-01T00:30:44.242Z,7.55
2022-12-01T00:31:44.277Z,7.54
2022-12-01T00:32:44.219Z,7.55
2022-12-01T00:33:44.205Z,7.54
2022-12-01T00:34:44.200Z,7.54
2022-12-01T00:35:44.207Z,7.54
2022-12-01T00:36:44.175Z,7.54
2022-12-01T00:37:44.180Z,7.54
2022-12-01T00:38:44.142Z,7.55
2022-12-01T00:39:44.147Z,7.57
2022-12-01T00:40:44.113Z,7.57
2022-12-01T00:41:44.135Z,7.57
2022-12-01T00:42:44.090Z,7.57
2022-12-01T00:43:44.096Z,7.58
2022-12-01T00:44:44.114Z,7.57
2022-12-01T00:45:44.161Z,7.58
2022-12-01T00:46:44.073Z,7.58
2022-12-01T00:47:44.065Z,7.58
2022-12-01T00:48:44.044Z,7.60
2022-12-01T00:49:44.048Z,7.62
2022-12-01T00:50:44.026Z,7.63
2022-12-01T00:51:44.019Z,7.63
2022-12-01T00:52:44.047Z,7.67
2022-12-01T00:53:44.027Z,7.66
2022-12-01T00:54:43.980Z,7.66
2022-12-01T00:55:43.961Z,7.66
2022-12-01T00:56:43.946Z,7.66
2022-12-01T00:57:43.964Z,7.66
2022-12-01T00:58:43.950Z,7.66
2022-12-01T00:59:43.905Z,7.67
2022-12-01T01:00:43.906Z,7.63
2022-12-01T01:01:43.948Z,7.62
2022-12-01T01:02:44.023Z,7.62
2022-12-01T01:03:43.934Z,7.58
2022-12-01T01:04:43.856Z,7.52
2022-12-01T01:05:43.839Z,7.52
2022-12-01T01:06:43.838Z,7.50
2022-12-01T01:07:43.881Z,7.47
2022-12-01T01:08:43.808Z,7.48
2022-12-01T01:09:44.516Z,7.48
2022-12-01T01:10:43.831Z,7.47
2022-12-01T01:11:43.775Z,7.45
2022-12-01T01:12:43.763Z,7.45
2022-12-01T01:13:43.756Z,7.44
2022-12-01T01:14:43.743Z,7.45
2022-12-01T01:15:43.742Z,7.47
2022-12-01T01:16:43.803Z,7.47
2022-12-01T01:17:43.698Z,7.47
2022-12-01T01:18:43.699Z,7.47
2022-12-01T01:19:43.692Z,7.47
2022-12-01T01:20:43.695Z,7.48
2022-12-01T01:21:43.682Z,7.48
2022-12-01T01:22:43.698Z,7.47
2022-12-01T01:23:43.714Z,7.48
2022-12-01T01:24:43.810Z,7.50
2022-12-01T01:25:43.633Z,7.50
2022-12-01T01:26:43.623Z,7.50
2022-12-01T01:27:43.633Z,7.50
2022-12-01T01:28:43.623Z,7.51
2022-12-01T01:29:43.576Z,7.51
2022-12-01T01:30:43.590Z,7.51
2022-12-01T01:31:43.567Z,7.50
2022-12-01T01:32:43.564Z,7.50
2022-12-01T01:33:43.548Z,7.52
2022-12-01T01:34:43.557Z,7.51
2022-12-01T01:35:43.515Z,7.50
2022-12-01T01:36:43.516Z,7.50
2022-12-01T01:37:43.483Z,7.50
2022-12-01T01:38:43.492Z,7.50
2022-12-01T01:39:43.485Z,7.50
2022-12-01T01:40:43.461Z,7.50
2022-12-01T01:41:43.469Z,7.50
2022-12-01T01:42:43.462Z,7.51
2022-12-01T01:43:43.468Z,7.52
2022-12-01T01:44:43.425Z,7.52
2022-12-01T01:45:43.499Z,7.52
2022-12-01T01:46:43.404Z,7.51
2022-12-01T01:47:43.455Z,7.51
2022-12-01T01:48:43.380Z,7.52
2022-12-01T01:49:43.389Z,7.50
2022-12-01T01:50:43.339Z,7.51
2022-12-01T01:51:43.366Z,7.51
2022-12-01T01:52:43.345Z,7.51
2022-12-01T01:53:43.343Z,7.51
2022-12-01T01:54:43.347Z,7.50
2022-12-01T01:55:43.316Z,7.51
2022-12-01T01:56:43.294Z,7.51
2022-12-01T01:57:49.859Z,7.51
2022-12-01T01:58:43.272Z,7.50
2022-12-01T01:59:43.270Z,7.48
2022-12-01T02:00:43.217Z,7.50
2022-12-01T02:01:43.345Z,7.48
2022-12-01T02:02:43.268Z,7.48
2022-12-01T02:03:43.278Z,7.47
2022-12-01T02:04:43.189Z,7.45
2022-12-01T02:05:43.201Z,7.45
2022-12-01T02:06:43.170Z,7.45
2022-12-01T02:07:43.240Z,7.45
2022-12-01T02:08:43.165Z,7.44
2022-12-01T02:09:43.185Z,7.42
2022-12-01T02:10:43.158Z,7.42
2022-12-01T02:11:43.142Z,7.42
2022-12-01T02:12:43.124Z,7.42
2022-12-01T02:13:43.100Z,7.42
2022-12-01T02:14:43.127Z,7.42
2022-12-01T02:15:43.115Z,7.42
2022-12-01T02:16:43.172Z,7.44
2022-12-01T02:17:43.071Z,7.44
2022-12-01T02:18:43.098Z,7.45
2022-12-01T02:19:43.032Z,7.42
2022-12-01T02:20:43.035Z,7.42
2022-12-01T02:21:43.034Z,7.37
2022-12-01T02:22:43.009Z,7.36
2022-12-01T02:23:43.000Z,7.37
2022-12-01T02:24:43.001Z,7.36
2022-12-01T02:25:43.069Z,7.36
2022-12-01T02:26:42.942Z,7.37
2022-12-01T02:27:50.007Z,7.34
2022-12-01T02:28:42.949Z,7.34
2022-12-01T02:29:43.150Z,7.32
2022-12-01T02:30:42.937Z,7.32
2022-12-01T02:31:42.950Z,7.32
2022-12-01T02:32:42.909Z,7.33
2022-12-01T02:33:42.998Z,7.32
2022-12-01T02:34:42.868Z,7.32
2022-12-01T02:35:42.878Z,7.34
2022-12-01T02:36:42.863Z,7.36
2022-12-01T02:37:42.824Z,7.37
2022-12-01T02:38:42.882Z,7.36
2022-12-01T02:39:42.825Z,7.36
2022-12-01T02:40:42.794Z,7.37
2022-12-01T02:41:42.800Z,7.39
2022-12-01T02:42:42.802Z,7.39
2022-12-01T02:43:42.795Z,7.41
2022-12-01T02:44:42.770Z,7.41
2022-12-01T02:45:42.857Z,7.39
2022-12-01T02:46:42.778Z,7.41
2022-12-01T02:47:49.263Z,7.37
2022-12-01T02:48:42.727Z,7.39
2022-12-01T02:49:42.739Z,7.39
2022-12-01T02:50:42.695Z,7.41
2022-12-01T02:51:42.685Z,7.41
2022-12-01T02:52:42.686Z,7.41
2022-12-01T02:53:42.675Z,7.41
2022-12-01T02:54:42.652Z,7.39
2022-12-01T02:55:42.667Z,7.39
2022-12-01T02:56:42.711Z,7.39
2022-12-01T02:57:42.687Z,7.41
2022-12-01T02:58:42.663Z,7.41
2022-12-01T02:59:42.617Z,7.41
2022-12-01T03:00:42.607Z,7.41
2022-12-01T03:01:42.688Z,7.42
2022-12-01T03:02:42.651Z,7.41
2022-12-01T03:03:42.545Z,7.42
2022-12-01T03:04:42.544Z,7.44
2022-12-01T03:05:42.558Z,7.42
2022-12-01T03:06:42.542Z,7.42
2022-12-01T03:07:49.071Z,7.41
2022-12-01T03:08:42.489Z,7.42
2022-12-01T03:09:42.492Z,7.41
2022-12-01T03:10:42.489Z,7.39
2022-12-01T03:11:42.487Z,7.39
2022-12-01T03:12:42.449Z,7.36
2022-12-01T03:13:42.454Z,7.34
2022-12-01T03:14:42.483Z,7.33
2022-12-01T03:15:42.551Z,7.33
2022-12-01T03:16:42.402Z,7.33
2022-12-01T03:17:42.427Z,7.33
2022-12-01T03:18:42.373Z,7.34
2022-12-01T03:19:42.372Z,7.32
2022-12-01T03:20:42.397Z,7.29
2022-12-01T03:21:42.384Z,7.27
2022-12-01T03:22:42.351Z,7.26
2022-12-01T03:23:42.355Z,7.27
2022-12-01T03:24:42.359Z,7.27
2022-12-01T03:25:42.340Z,7.27
2022-12-01T03:26:42.304Z,7.26
2022-12-01T03:28:00.586Z,7.24
2022-12-01T03:28:42.285Z,7.24
2022-12-01T03:29:42.272Z,7.24
2022-12-01T03:30:42.272Z,7.24
2022-12-01T03:31:42.286Z,7.23
2022-12-01T03:32:42.238Z,7.27
2022-12-01T03:33:42.231Z,7.24
2022-12-01T03:34:42.212Z,7.23
2022-12-01T03:35:42.225Z,7.23
2022-12-01T03:36:42.242Z,7.24
2022-12-01T03:37:48.695Z,7.19
2022-12-01T03:38:42.216Z,7.15
2022-12-01T03:39:42.155Z,7.14
2022-12-01T03:40:42.174Z,7.11
2022-12-01T03:41:42.158Z,7.11
2022-12-01T03:42:42.149Z,7.09
2022-12-01T03:43:42.140Z,7.09
2022-12-01T03:44:42.137Z,7.12
2022-12-01T03:45:42.112Z,7.14
2022-12-01T03:46:42.165Z,7.15
2022-12-01T03:47:42.097Z,7.18
2022-12-01T03:48:42.103Z,7.18
2022-12-01T03:49:42.114Z,7.16
2022-12-01T03:50:42.073Z,7.16
2022-12-01T03:51:42.036Z,7.16
2022-12-01T03:52:42.033Z,7.16
2022-12-01T03:53:42.041Z,7.16
2022-12-01T03:54:42.000Z,7.16
2022-12-01T03:55:42.000Z,7.16
2022-12-01T03:56:41.985Z,7.19
2022-12-01T03:57:41.971Z,7.21
2022-12-01T03:58:42.054Z,7.19
2022-12-01T03:59:41.933Z,7.19
2022-12-01T04:00:41.958Z,7.21
2022-12-01T04:01:42.037Z,7.21
2022-12-01T04:02:41.990Z,7.18
2022-12-01T04:03:41.923Z,7.19
2022-12-01T04:04:41.892Z,7.18
2022-12-01T04:05:41.873Z,7.24
2022-12-01T04:06:41.881Z,7.21
2022-12-01T04:07:41.897Z,7.23
2022-12-01T04:08:41.883Z,7.24
2022-12-01T04:09:41.841Z,7.24
2022-12-01T04:10:41.811Z,7.24
2022-12-01T04:11:41.841Z,7.26
2022-12-01T04:12:41.808Z,7.29
2022-12-01T04:13:41.805Z,7.27
2022-12-01T04:14:41.776Z,7.29
2022-12-01T04:15:41.830Z,7.26
2022-12-01T04:16:41.751Z,7.24
2022-12-01T04:17:41.752Z,7.24
2022-12-01T04:18:41.732Z,7.26
2022-12-01T04:19:41.730Z,7.26
2022-12-01T04:20:41.721Z,7.27
2022-12-01T04:21:41.717Z,7.26
2022-12-01T04:22:41.730Z,7.27
2022-12-01T04:23:41.695Z,7.27
2022-12-01T04:24:41.691Z,7.26
2022-12-01T04:25:41.681Z,7.24
2022-12-01T04:26:41.634Z,7.21
2022-12-01T04:27:41.643Z,7.21
2022-12-01T04:28:41.618Z,7.23
2022-12-01T04:29:41.678Z,7.23
2022-12-01T04:30:41.593Z,7.23
2022-12-01T04:31:41.674Z,7.21
2022-12-01T04:32:41.568Z,7.21
2022-12-01T04:33:41.568Z,7.21
2022-12-01T04:34:41.577Z,7.21
2022-12-01T04:35:41.576Z,7.21
2022-12-01T04:36:41.549Z,7.21
2022-12-01T04:37:48.040Z,7.21
2022-12-01T04:38:41.506Z,7.21
2022-12-01T04:39:41.530Z,7.19
2022-12-01T04:40:41.485Z,7.19
2022-12-01T04:41:41.503Z,7.21
2022-12-01T04:42:41.473Z,7.23
2022-12-01T04:43:41.495Z,7.23
2022-12-01T04:44:41.469Z,7.23
2022-12-01T04:45:42.803Z,7.19
2022-12-01T04:46:41.651Z,7.21
2022-12-01T04:47:41.439Z,7.21
2022-12-01T04:48:41.408Z,7.21
2022-12-01T04:49:41.417Z,7.19
2022-12-01T04:50:41.404Z,7.18
2022-12-01T04:51:41.399Z,7.15
2022-12-01T04:52:41.352Z,7.14
2022-12-01T04:53:41.366Z,7.15
2022-12-01T04:54:41.346Z,7.15
2022-12-01T04:55:41.351Z,7.14
2022-12-01T04:56:41.360Z,7.14
2022-12-01T04:57:41.324Z,7.14
2022-12-01T04:58:41.299Z,7.14
2022-12-01T04:59:41.312Z,7.12
2022-12-01T05:00:41.424Z,7.12
2022-12-01T05:01:41.353Z,7.12
2022-12-01T05:02:41.248Z,7.11
2022-12-01T05:03:41.242Z,7.12
2022-12-01T05:04:41.235Z,7.12
2022-12-01T05:05:41.246Z,7.14
2022-12-01T05:06:41.210Z,7.12
2022-12-01T05:07:41.242Z,7.12
2022-12-01T05:08:41.190Z,7.12
2022-12-01T05:09:41.164Z,7.12
2022-12-01T05:10:41.170Z,7.12
2022-12-01T05:11:41.164Z,7.12
2022-12-01T05:12:41.146Z,7.14
2022-12-01T05:13:41.141Z,7.16
2022-12-01T05:14:41.147Z,7.16
2022-12-01T05:15:41.131Z,7.19
2022-12-01T05:16:41.239Z,7.19
2022-12-01T05:17:41.112Z,7.19
2022-12-01T05:18:41.254Z,7.19
2022-12-01T05:19:41.077Z,7.21
2022-12-01T05:20:41.081Z,7.19
2022-12-01T05:21:41.797Z,7.19
2022-12-01T05:23:04.354Z,7.19
2022-12-01T05:23:41.019Z,7.19
2022-12-01T05:24:41.048Z,7.16
2022-12-01T05:25:41.003Z,7.18
2022-12-01T05:26:41.011Z,7.19
2022-12-01T05:27:40.970Z,7.19
2022-12-01T05:28:41.025Z,7.19
2022-12-01T05:29:40.966Z,7.19
2022-12-01T05:30:40.992Z,7.23
2022-12-01T05:31:41.154Z,7.24
2022-12-01T05:32:40.931Z,7.24
2022-12-01T05:33:40.904Z,7.26
2022-12-01T05:34:40.914Z,7.26
2022-12-01T05:35:40.919Z,7.30
2022-12-01T05:36:40.926Z,7.30
2022-12-01T05:37:40.890Z,7.30
2022-12-01T05:38:40.861Z,7.32
2022-12-01T05:39:40.877Z,7.33
2022-12-01T05:40:40.833Z,7.32
2022-12-01T05:41:40.858Z,7.32
2022-12-01T05:42:40.846Z,7.30
2022-12-01T05:43:40.808Z,7.30
2022-12-01T05:44:40.794Z,7.30
2022-12-01T05:45:40.901Z,7.32
2022-12-01T05:46:40.788Z,7.30
2022-12-01T05:47:47.338Z,7.30
2022-12-01T05:48:40.758Z,7.33
2022-12-01T05:49:40.993Z,7.32
2022-12-01T05:50:40.980Z,7.32
2022-12-01T05:51:40.715Z,7.30
2022-12-01T05:52:40.711Z,7.27
2022-12-01T05:53:40.711Z,7.26
2022-12-01T05:54:40.673Z,7.24
2022-12-01T05:55:40.701Z,7.24
2022-12-01T05:56:40.653Z,7.19
2022-12-01T05:57:40.672Z,7.19
2022-12-01T05:58:40.680Z,7.18
2022-12-01T05:59:40.635Z,7.16
2022-12-01T06:00:45.582Z,7.16
2022-12-01T06:01:40.729Z,7.15
2022-12-01T06:02:40.682Z,7.15
2022-12-01T06:03:40.592Z,7.15
2022-12-01T06:04:40.586Z,7.15
2022-12-01T06:05:40.596Z,7.14
2022-12-01T06:06:40.575Z,7.14
2022-12-01T06:07:47.143Z,7.14
2022-12-01T06:08:40.530Z,7.15
2022-12-01T06:09:40.541Z,7.15
2022-12-01T06:10:40.527Z,7.15
2022-12-01T06:11:40.521Z,7.16
2022-12-01T06:12:40.482Z,7.15
2022-12-01T06:13:40.474Z,7.14
2022-12-01T06:14:40.484Z,7.14
2022-12-01T06:15:40.455Z,7.15
2022-12-01T06:16:40.484Z,7.18
2022-12-01T06:17:40.739Z,7.19
2022-12-01T06:18:40.441Z,7.21
2022-12-01T06:19:40.445Z,7.23
2022-12-01T06:20:40.424Z,7.21
2022-12-01T06:21:40.431Z,7.21
2022-12-01T06:22:40.386Z,7.23
2022-12-01T06:23:40.378Z,7.24
2022-12-01T06:24:40.363Z,7.24
2022-12-01T06:25:40.376Z,7.24
2022-12-01T06:26:40.349Z,7.26
2022-12-01T06:27:46.876Z,7.24
2022-12-01T06:28:40.331Z,7.24
2022-12-01T06:29:42.263Z,7.24
2022-12-01T06:30:40.311Z,7.24
2022-12-01T06:31:40.354Z,7.24
2022-12-01T06:32:40.296Z,7.29
2022-12-01T06:33:40.320Z,7.30
2022-12-01T06:34:40.241Z,7.32
2022-12-01T06:35:40.248Z,7.32
2022-12-01T06:36:40.237Z,7.32
2022-12-01T06:37:40.240Z,7.32
2022-12-01T06:38:40.225Z,7.30
2022-12-01T06:39:40.209Z,7.27
2022-12-01T06:40:40.192Z,7.26
2022-12-01T06:41:40.192Z,7.26
2022-12-01T06:42:40.180Z,7.26
2022-12-01T06:43:40.150Z,7.24
2022-12-01T06:44:40.156Z,7.26
2022-12-01T06:45:40.169Z,7.26
2022-12-01T06:46:40.378Z,7.27
2022-12-01T06:47:40.136Z,7.29
2022-12-01T06:48:40.112Z,7.29
2022-12-01T06:49:40.120Z,7.29
2022-12-01T06:50:40.090Z,7.29
2022-12-01T06:51:40.115Z,7.27
2022-12-01T06:52:40.233Z,7.29
2022-12-01T06:53:40.079Z,7.29
2022-12-01T06:54:40.036Z,7.29
2022-12-01T06:55:40.041Z,7.30
2022-12-01T06:56:40.034Z,7.30
2022-12-01T06:57:40.033Z,7.30
2022-12-01T06:58:40.013Z,7.33
2022-12-01T06:59:39.984Z,7.36
2022-12-01T07:00:39.993Z,7.37
2022-12-01T07:01:40.090Z,7.39
2022-12-01T07:02:40.093Z,7.42
2022-12-01T07:03:40.167Z,7.44
2022-12-01T07:04:40.027Z,7.45
2022-12-01T07:05:39.929Z,7.42
2022-12-01T07:06:39.927Z,7.44
2022-12-01T07:07:39.981Z,7.44
2022-12-01T07:08:39.904Z,7.44
2022-12-01T07:09:40.783Z,7.42
2022-12-01T07:10:40.818Z,7.42
2022-12-01T07:11:39.866Z,7.41
2022-12-01T07:12:39.862Z,7.41
2022-12-01T07:13:39.866Z,7.42
2022-12-01T07:14:39.834Z,7.44
2022-12-01T07:15:39.824Z,7.42
2022-12-01T07:16:39.879Z,7.44
2022-12-01T07:17:39.807Z,7.45
2022-12-01T07:18:39.807Z,7.44
2022-12-01T07:19:39.781Z,7.44
2022-12-01T07:20:39.784Z,7.44
2022-12-01T07:21:39.762Z,7.47
2022-12-01T07:22:39.761Z,7.48
2022-12-01T07:23:39.730Z,7.48
2022-12-01T07:24:39.942Z,7.50
2022-12-01T07:25:39.732Z,7.50
2022-12-01T07:26:39.699Z,7.50
2022-12-01T07:27:39.698Z,7.48
2022-12-01T07:28:39.692Z,7.51
2022-12-01T07:29:39.886Z,7.51
2022-12-01T07:30:39.723Z,7.52
2022-12-01T07:31:39.692Z,7.51
2022-12-01T07:32:39.647Z,7.52
2022-12-01T07:33:39.834Z,7.52
2022-12-01T07:34:39.645Z,7.52
2022-12-01T07:35:40.383Z,7.52
2022-12-01T07:36:39.588Z,7.54
2022-12-01T07:37:39.567Z,7.51
2022-12-01T07:38:39.596Z,7.47
2022-12-01T07:39:39.610Z,7.44
2022-12-01T07:40:39.535Z,7.42
2022-12-01T07:41:39.521Z,7.41
2022-12-01T07:42:39.524Z,7.41
2022-12-01T07:43:39.527Z,7.37
2022-12-01T07:44:39.514Z,7.39
2022-12-01T07:45:39.609Z,7.39
2022-12-01T07:46:39.530Z,7.41
2022-12-01T07:47:39.454Z,7.41
2022-12-01T07:48:40.422Z,7.44
2022-12-01T07:49:39.457Z,7.47
2022-12-01T07:50:39.447Z,7.48
2022-12-01T07:51:39.447Z,7.47
2022-12-01T07:52:39.415Z,7.48
2022-12-01T07:53:39.390Z,7.48
2022-12-01T07:54:39.386Z,7.48
2022-12-01T07:55:39.410Z,7.48
2022-12-01T07:56:39.370Z,7.48
2022-12-01T07:57:39.355Z,7.47
2022-12-01T07:58:39.393Z,7.45
2022-12-01T07:59:39.332Z,7.44
2022-12-01T08:00:39.460Z,7.45
2022-12-01T08:01:44.245Z,7.45
2022-12-01T08:02:39.367Z,7.45
2022-12-01T08:03:39.294Z,7.45
2022-12-01T08:04:39.271Z,7.47
2022-12-01T08:05:39.291Z,7.45
2022-12-01T08:06:39.333Z,7.47
2022-12-01T08:07:39.368Z,7.42
2022-12-01T08:08:39.250Z,7.41
2022-12-01T08:09:39.272Z,7.41
2022-12-01T08:10:39.221Z,7.42
2022-12-01T08:11:39.240Z,7.42
2022-12-01T08:12:40.088Z,7.42
2022-12-01T08:13:39.233Z,7.39
2022-12-01T08:14:39.193Z,7.39
2022-12-01T08:15:39.237Z,7.41
2022-12-01T08:16:39.374Z,7.42
2022-12-01T08:17:39.165Z,7.42
2022-12-01T08:18:39.361Z,7.41
2022-12-01T08:19:39.135Z,7.44
2022-12-01T08:20:39.121Z,7.45
2022-12-01T08:21:39.125Z,7.44
2022-12-01T08:22:39.116Z,7.47
2022-12-01T08:23:39.069Z,7.50
2022-12-01T08:24:39.068Z,7.50
2022-12-01T08:25:39.070Z,7.52
2022-12-01T08:26:39.037Z,7.52
2022-12-01T08:27:39.052Z,7.54
2022-12-01T08:28:39.020Z,7.57
2022-12-01T08:29:39.253Z,7.57
2022-12-01T08:30:39.022Z,7.58
2022-12-01T08:31:39.285Z,7.62
2022-12-01T08:32:39.827Z,7.63
2022-12-01T08:33:38.955Z,7.66
2022-12-01T08:34:38.959Z,7.67
2022-12-01T08:35:38.936Z,7.67
2022-12-01T08:36:38.956Z,7.69
2022-12-01T08:37:39.223Z,7.69
2022-12-01T08:38:39.315Z,7.67
2022-12-01T08:39:39.146Z,7.69
2022-12-01T08:40:39.503Z,7.69
2022-12-01T08:41:38.898Z,7.70
2022-12-01T08:42:38.878Z,7.70
2022-12-01T08:43:57.140Z,7.71
2022-12-01T08:44:38.963Z,7.71
2022-12-01T08:45:38.833Z,7.71
2022-12-01T08:46:39.448Z,7.71
2022-12-01T08:47:38.826Z,7.74
2022-12-01T08:48:40.773Z,7.74
2022-12-01T08:49:38.778Z,7.76
2022-12-01T08:50:39.819Z,7.74
2022-12-01T08:51:38.775Z,7.76
2022-12-01T08:52:38.745Z,7.76
2022-12-01T08:53:44.009Z,7.76
2022-12-01T08:54:38.753Z,7.76
2022-12-01T08:55:38.710Z,7.76
2022-12-01T08:56:38.710Z,7.77
2022-12-01T08:57:38.708Z,7.79
2022-12-01T08:58:38.675Z,7.81
2022-12-01T08:59:38.911Z,7.81
2022-12-01T09:00:38.878Z,7.82
2022-12-01T09:01:38.781Z,7.82
2022-12-01T09:02:38.722Z,7.82
2022-12-01T09:03:38.894Z,7.84
2022-12-01T09:04:38.634Z,7.84
2022-12-01T09:05:39.358Z,7.84
2022-12-01T09:06:39.368Z,7.85
2022-12-01T09:07:38.653Z,7.85
2022-12-01T09:08:41.685Z,7.86
2022-12-01T09:09:40.170Z,7.86
2022-12-01T09:10:39.325Z,7.88
2022-12-01T09:11:38.594Z,7.86
2022-12-01T09:12:43.209Z,7.86
2022-12-01T09:13:38.513Z,7.88
2022-12-01T09:14:38.540Z,7.88
2022-12-01T09:15:38.512Z,7.89
2022-12-01T09:16:38.596Z,7.91
2022-12-01T09:17:38.491Z,7.94
2022-12-01T09:18:39.438Z,7.91
2022-12-01T09:19:38.699Z,7.89
2022-12-01T09:20:39.378Z,7.92
2022-12-01T09:21:38.485Z,7.92
2022-12-01T09:22:39.357Z,7.92
2022-12-01T09:23:39.350Z,7.94
2022-12-01T09:24:39.356Z,7.92
2022-12-01T09:25:44.261Z,7.89
2022-12-01T09:26:38.395Z,7.89
2022-12-01T09:27:38.565Z,7.88
2022-12-01T09:28:39.751Z,7.89
2022-12-01T09:29:38.368Z,7.88
2022-12-01T09:30:38.388Z,7.88
2022-12-01T09:31:38.375Z,7.88
2022-12-01T09:32:38.874Z,7.88
2022-12-01T09:33:44.527Z,7.89
2022-12-01T09:34:38.294Z,7.92
2022-12-01T09:35:38.306Z,7.88
2022-12-01T09:36:38.296Z,7.88
2022-12-01T09:37:39.526Z,7.89
2022-12-01T09:38:38.258Z,7.91
2022-12-01T09:39:38.960Z,7.89
2022-12-01T09:40:39.826Z,7.92
2022-12-01T09:41:38.245Z,7.94
2022-12-01T09:42:38.207Z,7.95
2022-12-01T09:44:00.522Z,7.99
2022-12-01T09:44:38.213Z,7.99
2022-12-01T09:45:39.317Z,8.02
2022-12-01T09:46:38.264Z,8.00
2022-12-01T09:47:38.368Z,8.00
2022-12-01T09:48:38.139Z,8.00
2022-12-01T09:49:38.853Z,7.99
2022-12-01T09:50:38.149Z,7.99
2022-12-01T09:51:39.672Z,7.99
2022-12-01T09:52:38.176Z,8.00
2022-12-01T09:53:38.094Z,8.02
2022-12-01T09:54:38.076Z,8.02
2022-12-01T09:55:38.107Z,8.02
2022-12-01T09:56:38.082Z,8.04
2022-12-01T09:57:38.056Z,8.04
2022-12-01T09:58:38.037Z,8.06
2022-12-01T09:59:56.507Z,8.06
2022-12-01T10:00:38.080Z,8.04
2022-12-01T10:01:38.002Z,8.06
2022-12-01T10:02:38.082Z,8.07
2022-12-01T10:03:39.580Z,8.07
2022-12-01T10:04:39.399Z,8.04
2022-12-01T10:05:51.308Z,8.07
2022-12-01T10:06:44.040Z,8.03
2022-12-01T10:07:38.915Z,8.04
2022-12-01T10:08:40.192Z,8.06
2022-12-01T10:09:37.941Z,8.06
2022-12-01T10:10:38.897Z,8.09
2022-12-01T10:11:37.880Z,8.09
2022-12-01T10:12:39.918Z,8.10
2022-12-01T10:13:37.884Z,8.09
2022-12-01T10:14:37.877Z,8.07
2022-12-01T10:15:38.392Z,8.06
2022-12-01T10:16:37.890Z,8.06
2022-12-01T10:17:38.352Z,8.06
2022-12-01T10:18:37.817Z,8.04
2022-12-01T10:19:38.393Z,8.02
2022-12-01T10:20:39.114Z,8.00
2022-12-01T10:21:37.795Z,8.02
2022-12-01T10:22:38.969Z,8.02
2022-12-01T10:23:37.794Z,8.04
2022-12-01T10:24:37.925Z,8.06
2022-12-01T10:25:38.455Z,8.06
2022-12-01T10:26:40.316Z,8.06
2022-12-01T10:27:44.268Z,8.06
2022-12-01T10:28:37.702Z,8.07
2022-12-01T10:29:38.741Z,8.09
2022-12-01T10:30:38.635Z,8.10
2022-12-01T10:31:37.765Z,8.07
2022-12-01T10:32:37.666Z,8.06
2022-12-01T10:33:37.672Z,8.03
2022-12-01T10:34:37.635Z,8.02
2022-12-01T10:35:38.191Z,8.02
2022-12-01T10:36:37.633Z,8.03
2022-12-01T10:37:37.670Z,8.03
2022-12-01T10:38:37.584Z,8.03
2022-12-01T10:39:40.830Z,8.03
2022-12-01T10:40:39.935Z,8.00
2022-12-01T10:41:40.709Z,8.00
2022-12-01T10:42:37.557Z,8.02
2022-12-01T10:43:37.540Z,8.00
2022-12-01T10:44:37.535Z,8.03
2022-12-01T10:45:38.470Z,8.06
2022-12-01T10:46:37.517Z,8.09
2022-12-01T10:47:37.517Z,8.10
2022-12-01T10:48:38.437Z,8.12
2022-12-01T10:49:38.630Z,8.14
2022-12-01T10:50:37.445Z,8.18
2022-12-01T10:51:37.681Z,8.22
2022-12-01T10:52:44.100Z,8.24
2022-12-01T10:53:37.480Z,8.24
2022-12-01T10:54:38.391Z,8.25
2022-12-01T10:55:37.414Z,8.27
2022-12-01T10:56:37.382Z,8.24
2022-12-01T10:57:38.550Z,8.24
2022-12-01T10:58:37.376Z,8.28
2022-12-01T10:59:37.554Z,8.28
2022-12-01T11:01:39.766Z,8.31
2022-12-01T11:02:39.057Z,8.29
2022-12-01T11:03:37.617Z,8.31
2022-12-01T11:04:37.309Z,8.31
2022-12-01T11:05:37.503Z,8.34
2022-12-01T11:06:37.265Z,8.37
2022-12-01T11:07:37.334Z,8.40
2022-12-01T11:08:37.290Z,8.45
2022-12-01T11:09:37.450Z,8.45
2022-12-01T11:10:37.274Z,8.46
2022-12-01T11:11:37.234Z,8.46
2022-12-01T11:12:37.288Z,8.46
2022-12-01T11:13:37.239Z,8.45
2022-12-01T11:14:37.546Z,8.47
2022-12-01T11:15:38.883Z,8.49
2022-12-01T11:16:37.791Z,8.50
2022-12-01T11:17:37.163Z,8.52
2022-12-01T11:18:37.231Z,8.54
2022-12-01T11:19:37.533Z,8.52
2022-12-01T11:20:37.985Z,8.55
2022-12-01T11:21:37.114Z,8.52
2022-12-01T11:22:37.113Z,8.50
2022-12-01T11:23:37.085Z,8.49
2022-12-01T11:24:37.086Z,8.49
2022-12-01T11:25:37.102Z,8.52
2022-12-01T11:26:37.110Z,8.55
2022-12-01T11:27:37.062Z,8.60
2022-12-01T11:28:37.056Z,8.63
2022-12-01T11:29:37.039Z,8.65
2022-12-01T11:30:36.995Z,8.68
2022-12-01T11:31:37.047Z,8.75
2022-12-01T11:32:37.024Z,8.79
2022-12-01T11:33:37.216Z,8.88
2022-12-01T11:34:37.163Z,8.91
2022-12-01T11:35:37.910Z,8.97
2022-12-01T11:36:36.992Z,9.03
2022-12-01T11:37:37.917Z,9.08
2022-12-01T11:38:37.009Z,9.13
2022-12-01T11:39:37.889Z,9.08
2022-12-01T11:40:36.883Z,9.08
2022-12-01T11:41:38.132Z,9.15
2022-12-01T11:42:36.904Z,9.19
2022-12-01T11:43:38.482Z,9.19
2022-12-01T11:44:51.354Z,9.17
2022-12-01T11:45:38.981Z,9.19
2022-12-01T11:46:37.020Z,9.22
2022-12-01T11:47:36.812Z,9.26
2022-12-01T11:48:36.884Z,9.34
2022-12-01T11:49:41.169Z,9.37
2022-12-01T11:50:36.811Z,9.35
2022-12-01T11:51:37.377Z,9.30
2022-12-01T11:52:39.323Z,9.24
2022-12-01T11:53:37.430Z,9.26
2022-12-01T11:54:36.757Z,9.24
2022-12-01T11:55:36.758Z,9.27
2022-12-01T11:56:39.269Z,9.31
2022-12-01T11:57:36.701Z,9.27
2022-12-01T11:58:36.766Z,9.31
2022-12-01T11:59:38.842Z,9.35
2022-12-01T12:00:36.694Z,9.38
2022-12-01T12:01:36.691Z,9.38
2022-12-01T12:02:38.074Z,9.40
2022-12-01T12:03:38.418Z,9.40
2022-12-01T12:04:37.430Z,9.41
2022-12-01T12:05:38.348Z,9.45
2022-12-01T12:06:40.448Z,9.53
2022-12-01T12:07:38.214Z,9.60
2022-12-01T12:08:36.689Z,9.70
2022-12-01T12:09:40.307Z,9.75
2022-12-01T12:10:36.814Z,9.83
2022-12-01T12:11:36.777Z,9.89
2022-12-01T12:12:36.527Z,10.04
2022-12-01T12:13:37.151Z,10.84
2022-12-01T12:14:37.648Z,11.90
2022-12-01T12:15:36.518Z,11.97
2022-12-01T12:16:36.859Z,11.94
2022-12-01T12:17:43.270Z,12.15
2022-12-01T12:18:36.478Z,12.03
2022-12-01T12:20:00.234Z,11.90
2022-12-01T12:20:36.515Z,11.69
2022-12-01T12:21:36.456Z,11.59
2022-12-01T12:22:36.922Z,11.57
2022-12-01T12:23:38.583Z,11.56
2022-12-01T12:24:36.394Z,11.41
2022-12-01T12:25:36.400Z,11.41
2022-12-01T12:26:36.387Z,11.33
2022-12-01T12:27:36.384Z,11.26
2022-12-01T12:28:36.373Z,11.12
2022-12-01T12:29:36.349Z,11.06
2022-12-01T12:30:37.019Z,11.11
2022-12-01T12:31:36.961Z,11.12
2022-12-01T12:32:37.589Z,11.03
2022-12-01T12:33:37.525Z,10.99
2022-12-01T12:34:36.290Z,10.99
2022-12-01T12:35:36.959Z,10.93
2022-12-01T12:36:36.462Z,10.90
2022-12-01T12:37:42.802Z,10.87
2022-12-01T12:38:39.165Z,10.94
2022-12-01T12:39:38.440Z,11.02
2022-12-01T12:40:36.210Z,11.38
2022-12-01T12:41:37.446Z,12.26
2022-12-01T12:42:37.886Z,13.22
2022-12-01T12:43:36.222Z,13.29
2022-12-01T12:44:37.518Z,13.29
2022-12-01T12:45:36.258Z,13.96
2022-12-01T12:46:36.187Z,14.11
2022-12-01T12:47:36.168Z,14.56
2022-12-01T12:48:45.653Z,14.59
2022-12-01T12:49:36.237Z,14.56
2022-12-01T12:50:36.223Z,14.39
2022-12-01T12:51:36.109Z,14.09
2022-12-01T12:52:36.112Z,13.84
2022-12-01T12:53:37.359Z,13.65
2022-12-01T12:54:36.132Z,13.88
2022-12-01T12:55:36.057Z,14.29
2022-12-01T12:56:36.440Z,14.04
2022-12-01T12:57:42.408Z,14.75
2022-12-01T12:58:36.015Z,15.30
2022-12-01T12:59:36.039Z,15.70
2022-12-01T13:00:36.010Z,15.89
2022-12-01T13:01:44.124Z,15.76
2022-12-01T13:02:36.034Z,15.84
2022-12-01T13:03:35.966Z,16.06
2022-12-01T13:04:36.898Z,16.18
2022-12-01T13:05:35.992Z,15.70
2022-12-01T13:06:35.927Z,15.73
2022-12-01T13:07:36.014Z,15.38
2022-12-01T13:08:35.965Z,15.30
2022-12-01T13:09:36.093Z,15.01
2022-12-01T13:10:37.265Z,15.15
2022-12-01T13:11:36.414Z,15.53
2022-12-01T13:12:35.893Z,16.03
2022-12-01T13:13:36.103Z,16.44
2022-12-01T13:14:35.856Z,16.87
2022-12-01T13:15:35.875Z,17.12
2022-12-01T13:16:35.900Z,17.24
2022-12-01T13:17:42.567Z,17.05